Главная страница
METAR-TAF:

METAR-TAF

Аэропорты :

Тузла, Босния и Герцеговина

широта: 44-33N, долгота: 018-42E, высота над уровнем моря: 306 м

Текущие метеонаблюдения

Эта сводка был подготовлена 44 минут назад, в 02:30 UTC
Ветер 1 Узел переменных направлений
Температура 4°C
Влажность 100%
Давление 1031 hPa
Видимость: 0050 м
туман

METAR: LQTZ 250230Z VRB01KT 0050 R09/0275N FG VV001 04/04 Q1031

Время: 05:14 (03:14 UTC)

Прогноз

Эта сводка был подготовлена 10 часа и 14 минут назад, в 17:00 UTC
Прогноз действительный с 24-го 18 UTC до 25-го 18 UTC
Ветер 8 Узел от западно-северо-западный
Видимость 10 км и более
Нет облачности ниже 1500 м, и нет кучево-дождевой облачности
Вероятность 30% :
временами
С 24-го 22 UTC до 25-го 06 UTC
Видимость: 0400 м
туман

TAF: LQTZ 241700Z 2418/2518 29008KT CAVOK TX15/2513Z TN05/2504Z PROB30 TEMPO 2422/2506 0400 FG

Метеонаблюдения и прогнозы для более 4000 аэропортов (сводки METAR и TAF).

Имеющиеся станции представлены на карте желтыми и красными точками.

Чтобы увидеть название станции, наведите на нее мышь.

Затем щелкните, чтобы увидеть метеонаблюдения и метеопрогнозы.

Управление картой: чтобы увеличить масштаб, щелкните зеленые кнопки с черным крестиком; чтобы уменьшить масштаб, щелкните зеленую кнопку с тире; для просмотра соседних карт щелкайте зеленые стрелки.


METAR-TAF: